地図

経路データ

SID SEASON NUMBER BASIN SUBBASIN NAME ISO_TIME NATURE LAT LON WMO_WIND WMO_PRES WMO_AGENCY TRACK_TYPE DIST2LAND LANDFALL IFLAG USA_AGENCY USA_ATCF_ID USA_LAT USA_LON USA_RECORD USA_STATUS USA_WIND USA_PRES USA_SSHS USA_R34_NE USA_R34_SE USA_R34_SW USA_R34_NW USA_R50_NE USA_R50_SE USA_R50_SW USA_R50_NW USA_R64_NE USA_R64_SE USA_R64_SW USA_R64_NW USA_POCI USA_ROCI USA_RMW USA_EYE TOKYO_LAT TOKYO_LON TOKYO_GRADE TOKYO_WIND TOKYO_PRES TOKYO_R50_DIR TOKYO_R50_LONG TOKYO_R50_SHORT TOKYO_R30_DIR TOKYO_R30_LONG TOKYO_R30_SHORT TOKYO_LAND CMA_LAT CMA_LON CMA_CAT CMA_WIND CMA_PRES HKO_LAT HKO_LON HKO_CAT HKO_WIND HKO_PRES NEWDELHI_LAT NEWDELHI_LON NEWDELHI_GRADE NEWDELHI_WIND NEWDELHI_PRES NEWDELHI_CI NEWDELHI_DP NEWDELHI_POCI REUNION_LAT REUNION_LON REUNION_TYPE REUNION_WIND REUNION_PRES REUNION_TNUM REUNION_CI REUNION_RMW REUNION_R34_NE REUNION_R34_SE REUNION_R34_SW REUNION_R34_NW REUNION_R50_NE REUNION_R50_SE REUNION_R50_SW REUNION_R50_NW REUNION_R64_NE REUNION_R64_SE REUNION_R64_SW REUNION_R64_NW BOM_LAT BOM_LON BOM_TYPE BOM_WIND BOM_PRES BOM_TNUM BOM_CI BOM_RMW BOM_R34_NE BOM_R34_SE BOM_R34_SW BOM_R34_NW BOM_R50_NE BOM_R50_SE BOM_R50_SW BOM_R50_NW BOM_R64_NE BOM_R64_SE BOM_R64_SW BOM_R64_NW BOM_ROCI BOM_POCI BOM_EYE BOM_POS_METHOD BOM_PRES_METHOD NADI_LAT NADI_LON NADI_CAT NADI_WIND NADI_PRES WELLINGTON_LAT WELLINGTON_LON WELLINGTON_WIND WELLINGTON_PRES DS824_LAT DS824_LON DS824_STAGE DS824_WIND DS824_PRES TD9636_LAT TD9636_LON TD9636_STAGE TD9636_WIND TD9636_PRES TD9635_LAT TD9635_LON TD9635_WIND TD9635_PRES TD9635_ROCI NEUMANN_LAT NEUMANN_LON NEUMANN_CLASS NEUMANN_WIND NEUMANN_PRES MLC_LAT MLC_LON MLC_CLASS MLC_WIND MLC_PRES USA_GUST BOM_GUST BOM_GUST_PER REUNION_GUST REUNION_GUST_PER USA_SEAHGT USA_SEARAD_NE USA_SEARAD_SE USA_SEARAD_SW USA_SEARAD_NW STORM_SPEED STORM_DIR
2020343S15081 2021 47 SI MM BONGOYO 2020-12-07 12:00:00 NR -15.1000 80.9000 PROVISIONAL 2352 2352 O_____________ tcvitals SI022020 -15.1000 80.9000 39 1000 0 30 90 55 30 1006 210 30 10 245
2020343S15081 2021 47 SI MM BONGOYO 2020-12-07 15:00:00 NR -15.3129 80.4179 PROVISIONAL 2375 2375 P_____________ SI022020 -15.3129 80.4179 42 1000 0 32 90 67 32 1007 185 27 10 245
2020343S15081 2021 47 SI MM BONGOYO 2020-12-07 18:00:00 NR -15.5000 80.0000 PROVISIONAL 2398 2370 O_____________ tcvitals SI022020 -15.5000 80.0000 45 1000 0 35 90 80 35 1008 160 25 8 244
2020343S15081 2021 47 SI MM BONGOYO 2020-12-07 21:00:00 NR -15.6621 79.6720 PROVISIONAL 2370 2323 P_____________ SI022020 -15.6621 79.6720 49 996 0 47 90 82 37 1007 160 22 8 239
2020343S15081 2021 47 SI MM BONGOYO 2020-12-08 00:00:00 NR -15.9000 79.3000 PROVISIONAL 2323 2249 O_____________ tcvitals SI022020 -15.9000 79.3000 54 993 0 60 90 85 40 1007 160 20 11 235
2020343S15081 2021 47 SI MM BONGOYO 2020-12-08 03:00:00 NR -16.3129 78.6930 PROVISIONAL 2249 2174 P_____________ SI022020 -16.3129 78.6930 54 992 0 57 92 80 40 1006 162 20 15 232
2020343S15081 2021 47 SI MM BONGOYO 2020-12-08 06:00:00 NR -16.8000 78.1000 PROVISIONAL 2174 2132 O_____________ tcvitals SI022020 -16.8000 78.1000 54 992 0 55 95 75 40 1006 165 20 13 224
2020343S15081 2021 47 SI MM BONGOYO 2020-12-08 09:00:00 NR -17.2421 77.7619 PROVISIONAL 2132 2090 P_____________ SI022020 -17.2421 77.7619 54 992 0 55 95 72 40 1006 170 20 11 212
2020343S15081 2021 47 SI MM BONGOYO 2020-12-08 12:00:00 NR -17.7000 77.5000 PROVISIONAL 2090 2038 O_____________ tcvitals SI022020 -17.7000 77.5000 54 992 0 55 95 70 40 1006 175 20 11 213
2020343S15081 2021 47 SI MM BONGOYO 2020-12-08 15:00:00 NR -18.1851 77.1276 PROVISIONAL 2038 1998 P_____________ SI022020 -18.1851 77.1276 54 993 0 67 97 75 47 1007 175 20 12 214
2020343S15081 2021 47 SI MM BONGOYO 2020-12-08 18:00:00 NR -18.7000 76.8000 PROVISIONAL 1998 1970 O_____________ tcvitals SI022020 -18.7000 76.8000 54 995 0 80 100 80 55 1009 175 20 12 203
2020343S15081 2021 47 SI MM BONGOYO 2020-12-08 21:00:00 NR -19.2723 76.6346 PROVISIONAL 1968 1952 P_____________ SI022020 -19.2723 76.6346 54 994 0 82 97 75 50 1008 165 17 11 194
2020343S15081 2021 47 SI MM BONGOYO 2020-12-09 00:00:00 NR -19.8000 76.5000 PROVISIONAL 1952 1918 O_____________ tcvitals SI022020 -19.8000 76.5000 54 993 0 85 95 70 45 1007 155 14 10 202
2020343S15081 2021 47 SI MM BONGOYO 2020-12-09 03:00:00 NR -20.2176 76.2277 PROVISIONAL 1918 1895 P_____________ SI022020 -20.2176 76.2277 49 995 0 85 95 70 45 1007 162 17 8 214
2020343S15081 2021 47 SI MM BONGOYO 2020-12-09 06:00:00 NR -20.5000 76.0000 PROVISIONAL 1895 1895 O_____________ tcvitals SI022020 -20.5000 76.0000 45 998 0 85 95 70 45 1007 170 20 5 209
2020343S15081 2021 47 SI MM BONGOYO 2020-12-09 09:00:00 NR -20.6524 75.9698 PROVISIONAL 1894 1894 P_____________ SI022020 -20.6524 75.9698 45 998 0 85 95 70 45 1007 170 20 2 172
2020343S15081 2021 47 SI MM BONGOYO 2020-12-09 12:00:00 NR -20.7000 76.0000 PROVISIONAL 1894 1894 O_____________ tcvitals SI022020 -20.7000 76.0000 45 998 0 85 95 70 45 1008 170 20 0 0
2020343S15081 2021 47 SI MM BONGOYO 2020-12-09 15:00:00 NR -20.6970 75.9477 PROVISIONAL 1884 1884 P_____________ SI022020 -20.6939 75.9379 42 999 0 85 92 70 45 1008 150 20 1 270
2020343S15081 2021 47 SI MM BONGOYO 2020-12-09 18:00:00 NR -20.7000 75.9000 PROVISIONAL 1884 1884 O_____________ tcvitals SI022020 -20.7000 75.9000 39 1000 0 85 90 70 45 1008 130 20 1 197
2020343S15081 2021 47 SI MM BONGOYO 2020-12-09 21:00:00 NR -20.7970 75.9103 PROVISIONAL 1884 1883 P_____________ SI022020 -20.8166 75.9781 39 999 0 75 87 72 50 1007 135 20 2 170
2020343S15081 2021 47 SI MM BONGOYO 2020-12-10 00:00:00 NR -20.9405 75.9310 PROVISIONAL 1883 1883 I_____________ tcvitals SI022020 -20.9810 76.0620 39 999 0 65 85 75 55 1007 140 20 3 171
2020343S15081 2021 47 SI MM BONGOYO 2020-12-10 03:00:00 NR -21.1019 75.9628 PROVISIONAL 1893 1883 P_____________ SI022020 -21.1539 76.0956 39 999 0 65 85 75 55 1007 140 27 3 187
2020343S15081 2021 47 SI MM BONGOYO 2020-12-10 06:00:00 NR -21.2500 75.9000 PROVISIONAL 1883 1852 O_____________ tcvitals SI022020 -21.3000 76.0000 39 999 0 65 85 75 55 1007 140 35 4 241
2020343S15081 2021 47 SI MM BONGOYO 2020-12-10 09:00:00 NR -21.2885 75.5976 PROVISIONAL 1852 1821 P_____________ SI022020 -21.3143 75.6453 37 1000 0 60 75 75 55 1007 140 37 6 255
2020343S15081 2021 47 SI MM BONGOYO 2020-12-10 12:00:00 NR -21.4000 75.3000 PROVISIONAL 1821 1821 O_____________ tcvitals SI022020 -21.4000 75.3000 35 1002 0 55 65 75 55 1007 140 40 6 207
2020343S15081 2021 47 SI MM BONGOYO 2020-12-10 15:00:00 NR -21.8336 75.3073 PROVISIONAL 1822 1822 P_____________ SI022020 -21.8298 75.2998 35 1003 0 52 72 77 52 1008 140 40 8 179
2020343S15081 2021 47 SI MM BONGOYO 2020-12-10 18:00:00 NR -22.2000 75.3000 PROVISIONAL 1824 1793 O_____________ tcvitals SI022020 -22.2000 75.3000 35 1005 0 50 80 80 50 1010 140 40 4 227
2020343S15081 2021 47 SI MM BONGOYO 2020-12-10 21:00:00 NR -22.1253 74.9721 PROVISIONAL 1793 1750 P_____________ SI022020 -22.1253 74.9721 35 1004 0 50 80 80 50 1009 135 40 7 295
2020343S15081 2021 47 SI MM BONGOYO 2020-12-11 00:00:00 NR -21.9000 74.6000 PROVISIONAL 1750 1739 O_____________ tcvitals SI022020 -21.9000 74.6000 35 1004 0 50 80 80 50 1009 130 40 6 308
2020343S15081 2021 47 SI MM BONGOYO 2020-12-11 03:00:00 NR -21.7696 74.4725 PROVISIONAL 1739 1718 P_____________ SI022020 -21.7696 74.4725 35 1002 0 90 90 1009 130 45 3 305
2020343S15081 2021 47 SI MM BONGOYO 2020-12-11 06:00:00 NR -21.7000 74.3000 PROVISIONAL 1718 1677 O_____________ tcvitals SI022020 -21.7000 74.3000 35 1001 0 130 100 1009 130 50 5 275
2020343S15081 2021 47 SI MM BONGOYO 2020-12-11 09:00:00 NR -21.7258 73.8968 PROVISIONAL 1677 1616 P_____________ SI022020 -21.7271 73.9050 32 1002 -1 1009 130 50 9 264
2020343S15081 2021 47 SI MM BONGOYO 2020-12-11 12:00:00 NR -21.8000 73.3000 PROVISIONAL 1616 1534 O_____________ tcvitals SI022020 -21.8000 73.3000 29 1004 -1 1009 130 50 13 263
2020343S15081 2021 47 SI MM BONGOYO 2020-12-11 15:00:00 NR -21.8959 72.4581 PROVISIONAL 1534 1441 P_____________ SI022020 -21.8959 72.4581 29 1006 -1 1010 125 50 16 266
2020343S15081 2021 47 SI MM BONGOYO 2020-12-11 18:00:00 NR -21.9000 71.6000 PROVISIONAL 1441 1378 O_____________ tcvightals SI022020 -21.9000 71.6000 29 1008 -1 1012 120 50 14 278
2020343S15081 2021 47 SI MM BONGOYO 2020-12-11 21:00:00 NR -21.7095 70.9718 PROVISIONAL 1378 1324 P_____________ SI022020 -21.7095 70.9718 27 1009 -1 1012 125 50 11 296
2020343S15081 2021 47 SI MM BONGOYO 2020-12-12 00:00:00 NR -21.4000 70.5000 PROVISIONAL 1324 O_____________ tcvightals SI022020 -21.4000 70.5000 25 1010 -1 1012 130 50 11 305

IBTrACS Databaseについて

本データベースは、米国NOAAが公開する1842年以降の世界の熱帯低気圧のベストトラックデータアーカイブInternational Best Track Archive for Climate Stewardship (IBTrACS)を、ウェブで閲覧しやすい形式に変換したものです。

最終更新日:2021-10-25